sensor_id;sensor_type;location;lat;lon;timestamp;temperature;humidity
13998;DHT22;7074;51.508;7.018;2022-09-17T00:00:05;13.80;99.90
13998;DHT22;7074;51.508;7.018;2022-09-17T00:02:34;13.80;99.90
13998;DHT22;7074;51.508;7.018;2022-09-17T00:05:02;13.80;99.90
13998;DHT22;7074;51.508;7.018;2022-09-17T00:07:29;13.70;99.90
13998;DHT22;7074;51.508;7.018;2022-09-17T00:09:56;13.70;99.90
13998;DHT22;7074;51.508;7.018;2022-09-17T00:12:24;13.70;99.90
13998;DHT22;7074;51.508;7.018;2022-09-17T00:14:52;13.70;99.90
13998;DHT22;7074;51.508;7.018;2022-09-17T00:17:19;13.60;99.90
13998;DHT22;7074;51.508;7.018;2022-09-17T00:19:47;13.60;99.90
13998;DHT22;7074;51.508;7.018;2022-09-17T00:22:15;13.60;99.90
13998;DHT22;7074;51.508;7.018;2022-09-17T00:24:42;13.50;99.90
13998;DHT22;7074;51.508;7.018;2022-09-17T00:27:09;13.50;99.90
13998;DHT22;7074;51.508;7.018;2022-09-17T00:29:36;13.60;99.90
13998;DHT22;7074;51.508;7.018;2022-09-17T00:32:05;13.50;99.90
13998;DHT22;7074;51.508;7.018;2022-09-17T00:34:32;13.50;99.90
13998;DHT22;7074;51.508;7.018;2022-09-17T00:36:59;13.50;99.90
13998;DHT22;7074;51.508;7.018;2022-09-17T00:39:27;13.40;99.90
13998;DHT22;7074;51.508;7.018;2022-09-17T00:41:54;13.40;99.90
13998;DHT22;7074;51.508;7.018;2022-09-17T00:44:47;13.40;99.90
13998;DHT22;7074;51.508;7.018;2022-09-17T00:47:22;13.40;99.90
13998;DHT22;7074;51.508;7.018;2022-09-17T00:49:53;13.50;99.90
13998;DHT22;7074;51.508;7.018;2022-09-17T00:52:25;13.50;99.90
13998;DHT22;7074;51.508;7.018;2022-09-17T00:54:57;13.50;99.90
13998;DHT22;7074;51.508;7.018;2022-09-17T00:57:26;13.40;99.90
13998;DHT22;7074;51.508;7.018;2022-09-17T00:59:54;13.40;99.90
13998;DHT22;7074;51.508;7.018;2022-09-17T01:02:24;13.30;99.90
13998;DHT22;7074;51.508;7.018;2022-09-17T01:04:51;13.30;99.90
13998;DHT22;7074;51.508;7.018;2022-09-17T01:10:06;13.30;99.90
13998;DHT22;7074;51.508;7.018;2022-09-17T01:12:48;13.20;99.90
13998;DHT22;7074;51.508;7.018;2022-09-17T01:15:23;13.20;99.90
13998;DHT22;7074;51.508;7.018;2022-09-17T01:18:03;13.10;99.90
13998;DHT22;7074;51.508;7.018;2022-09-17T01:21:09;13.10;99.90
13998;DHT22;7074;51.508;7.018;2022-09-17T01:24:08;13.10;99.90
13998;DHT22;7074;51.508;7.018;2022-09-17T01:27:22;13.00;99.90
13998;DHT22;7074;51.508;7.018;2022-09-17T01:30:09;13.10;99.90
13998;DHT22;7074;51.508;7.018;2022-09-17T01:32:44;13.00;99.90
13998;DHT22;7074;51.508;7.018;2022-09-17T01:35:19;13.00;99.90
13998;DHT22;7074;51.508;7.018;2022-09-17T01:37:53;13.00;99.90
13998;DHT22;7074;51.508;7.018;2022-09-17T01:40:25;13.00;99.90
13998;DHT22;7074;51.508;7.018;2022-09-17T01:43:00;13.00;99.90
13998;DHT22;7074;51.508;7.018;2022-09-17T01:45:36;13.00;99.90
13998;DHT22;7074;51.508;7.018;2022-09-17T01:48:09;12.90;99.90
13998;DHT22;7074;51.508;7.018;2022-09-17T01:50:41;12.90;99.90
13998;DHT22;7074;51.508;7.018;2022-09-17T01:53:11;12.90;99.90
13998;DHT22;7074;51.508;7.018;2022-09-17T01:55:42;12.90;99.90
13998;DHT22;7074;51.508;7.018;2022-09-17T01:58:13;12.90;99.90
13998;DHT22;7074;51.508;7.018;2022-09-17T02:00:45;12.90;99.90
13998;DHT22;7074;51.508;7.018;2022-09-17T02:03:18;12.80;99.90
13998;DHT22;7074;51.508;7.018;2022-09-17T02:05:49;12.80;99.90
13998;DHT22;7074;51.508;7.018;2022-09-17T02:08:21;12.90;99.90
13998;DHT22;7074;51.508;7.018;2022-09-17T02:10:55;13.00;99.90
13998;DHT22;7074;51.508;7.018;2022-09-17T02:13:28;13.00;99.90
13998;DHT22;7074;51.508;7.018;2022-09-17T02:16:01;13.00;99.90
13998;DHT22;7074;51.508;7.018;2022-09-17T02:18:38;13.10;99.90
13998;DHT22;7074;51.508;7.018;2022-09-17T02:21:10;13.00;99.90
13998;DHT22;7074;51.508;7.018;2022-09-17T02:23:47;13.00;99.90
13998;DHT22;7074;51.508;7.018;2022-09-17T02:26:19;13.00;99.90
13998;DHT22;7074;51.508;7.018;2022-09-17T02:28:52;13.00;99.90
13998;DHT22;7074;51.508;7.018;2022-09-17T02:31:20;13.10;99.90
13998;DHT22;7074;51.508;7.018;2022-09-17T02:33:51;13.10;99.90
13998;DHT22;7074;51.508;7.018;2022-09-17T02:36:19;13.10;99.90
13998;DHT22;7074;51.508;7.018;2022-09-17T02:38:57;13.10;99.90
13998;DHT22;7074;51.508;7.018;2022-09-17T02:41:35;13.10;99.90
13998;DHT22;7074;51.508;7.018;2022-09-17T02:44:12;13.10;99.90
13998;DHT22;7074;51.508;7.018;2022-09-17T02:46:56;13.10;99.90
13998;DHT22;7074;51.508;7.018;2022-09-17T02:49:53;13.20;99.90
13998;DHT22;7074;51.508;7.018;2022-09-17T02:52:43;13.10;99.90
13998;DHT22;7074;51.508;7.018;2022-09-17T02:55:17;13.10;99.90
13998;DHT22;7074;51.508;7.018;2022-09-17T02:57:47;13.00;99.90
13998;DHT22;7074;51.508;7.018;2022-09-17T03:00:20;13.00;99.90
13998;DHT22;7074;51.508;7.018;2022-09-17T03:02:52;13.00;99.90
13998;DHT22;7074;51.508;7.018;2022-09-17T03:05:24;13.00;99.90
13998;DHT22;7074;51.508;7.018;2022-09-17T03:07:54;13.00;99.90
13998;DHT22;7074;51.508;7.018;2022-09-17T03:10:21;12.90;99.90
13998;DHT22;7074;51.508;7.018;2022-09-17T03:12:48;13.00;99.90
13998;DHT22;7074;51.508;7.018;2022-09-17T03:15:16;12.90;99.90
13998;DHT22;7074;51.508;7.018;2022-09-17T03:17:43;12.90;99.90
13998;DHT22;7074;51.508;7.018;2022-09-17T03:20:10;13.00;99.90
13998;DHT22;7074;51.508;7.018;2022-09-17T03:22:42;13.00;99.90
13998;DHT22;7074;51.508;7.018;2022-09-17T03:25:10;13.00;99.90
13998;DHT22;7074;51.508;7.018;2022-09-17T03:27:37;13.00;99.90
13998;DHT22;7074;51.508;7.018;2022-09-17T03:30:05;13.00;99.90
13998;DHT22;7074;51.508;7.018;2022-09-17T03:32:32;13.00;99.90
13998;DHT22;7074;51.508;7.018;2022-09-17T03:35:00;13.00;99.90
13998;DHT22;7074;51.508;7.018;2022-09-17T03:37:27;13.00;99.90
13998;DHT22;7074;51.508;7.018;2022-09-17T03:39:55;13.00;99.90
13998;DHT22;7074;51.508;7.018;2022-09-17T03:42:22;13.00;99.90
13998;DHT22;7074;51.508;7.018;2022-09-17T03:44:50;13.00;99.90
13998;DHT22;7074;51.508;7.018;2022-09-17T03:47:17;13.00;99.90
13998;DHT22;7074;51.508;7.018;2022-09-17T03:49:44;13.00;99.90
13998;DHT22;7074;51.508;7.018;2022-09-17T03:52:11;13.00;99.90
13998;DHT22;7074;51.508;7.018;2022-09-17T03:54:38;13.00;99.90
13998;DHT22;7074;51.508;7.018;2022-09-17T03:57:07;13.00;99.90
13998;DHT22;7074;51.508;7.018;2022-09-17T03:59:34;13.00;99.90
13998;DHT22;7074;51.508;7.018;2022-09-17T04:02:01;13.00;99.90
13998;DHT22;7074;51.508;7.018;2022-09-17T04:04:28;13.00;99.90
13998;DHT22;7074;51.508;7.018;2022-09-17T04:06:55;13.00;99.90
13998;DHT22;7074;51.508;7.018;2022-09-17T04:09:23;13.00;99.90
13998;DHT22;7074;51.508;7.018;2022-09-17T04:11:50;13.00;99.90
13998;DHT22;7074;51.508;7.018;2022-09-17T04:14:18;12.90;99.90
13998;DHT22;7074;51.508;7.018;2022-09-17T04:16:45;12.90;99.90
13998;DHT22;7074;51.508;7.018;2022-09-17T04:19:13;12.90;99.90
13998;DHT22;7074;51.508;7.018;2022-09-17T04:21:40;12.90;99.90
13998;DHT22;7074;51.508;7.018;2022-09-17T04:24:07;12.90;99.90
13998;DHT22;7074;51.508;7.018;2022-09-17T04:26:34;12.90;99.90
13998;DHT22;7074;51.508;7.018;2022-09-17T04:29:01;13.00;99.90
13998;DHT22;7074;51.508;7.018;2022-09-17T04:31:30;13.00;99.90
13998;DHT22;7074;51.508;7.018;2022-09-17T04:33:57;13.00;99.90
13998;DHT22;7074;51.508;7.018;2022-09-17T04:36:24;13.00;99.90
13998;DHT22;7074;51.508;7.018;2022-09-17T04:38:52;13.00;99.90
13998;DHT22;7074;51.508;7.018;2022-09-17T04:41:19;13.00;99.90
13998;DHT22;7074;51.508;7.018;2022-09-17T04:43:46;13.00;99.90
13998;DHT22;7074;51.508;7.018;2022-09-17T04:46:13;13.00;99.90
13998;DHT22;7074;51.508;7.018;2022-09-17T04:48:42;13.00;99.90
13998;DHT22;7074;51.508;7.018;2022-09-17T04:51:09;13.00;99.90
13998;DHT22;7074;51.508;7.018;2022-09-17T04:53:37;13.00;99.90
13998;DHT22;7074;51.508;7.018;2022-09-17T04:56:04;13.10;99.90
13998;DHT22;7074;51.508;7.018;2022-09-17T04:58:32;13.00;99.90
13998;DHT22;7074;51.508;7.018;2022-09-17T05:00:59;13.00;99.90
13998;DHT22;7074;51.508;7.018;2022-09-17T05:03:26;12.90;99.90
13998;DHT22;7074;51.508;7.018;2022-09-17T05:05:55;12.90;99.90
13998;DHT22;7074;51.508;7.018;2022-09-17T05:08:22;12.90;99.90
13998;DHT22;7074;51.508;7.018;2022-09-17T05:10:51;12.90;99.90
13998;DHT22;7074;51.508;7.018;2022-09-17T05:13:18;13.00;99.90
13998;DHT22;7074;51.508;7.018;2022-09-17T05:15:46;12.90;99.90
13998;DHT22;7074;51.508;7.018;2022-09-17T05:18:13;12.90;99.90
13998;DHT22;7074;51.508;7.018;2022-09-17T05:20:41;12.90;99.90
13998;DHT22;7074;51.508;7.018;2022-09-17T05:23:10;12.90;99.90
13998;DHT22;7074;51.508;7.018;2022-09-17T05:25:37;12.90;99.90
13998;DHT22;7074;51.508;7.018;2022-09-17T05:28:04;12.90;99.90
13998;DHT22;7074;51.508;7.018;2022-09-17T05:30:32;12.90;99.90
13998;DHT22;7074;51.508;7.018;2022-09-17T05:32:59;12.80;99.90
13998;DHT22;7074;51.508;7.018;2022-09-17T05:35:28;12.90;99.90
13998;DHT22;7074;51.508;7.018;2022-09-17T05:37:58;12.90;99.90
13998;DHT22;7074;51.508;7.018;2022-09-17T05:40:27;12.90;99.90
13998;DHT22;7074;51.508;7.018;2022-09-17T05:42:57;12.90;99.90
13998;DHT22;7074;51.508;7.018;2022-09-17T05:45:25;12.90;99.90
13998;DHT22;7074;51.508;7.018;2022-09-17T05:47:56;12.90;99.90
13998;DHT22;7074;51.508;7.018;2022-09-17T05:50:24;12.90;99.90
13998;DHT22;7074;51.508;7.018;2022-09-17T05:52:51;12.90;99.90
13998;DHT22;7074;51.508;7.018;2022-09-17T05:55:20;13.00;99.90
13998;DHT22;7074;51.508;7.018;2022-09-17T05:57:49;13.00;99.90
13998;DHT22;7074;51.508;7.018;2022-09-17T06:00:17;13.00;99.90
13998;DHT22;7074;51.508;7.018;2022-09-17T06:02:44;13.00;99.90
13998;DHT22;7074;51.508;7.018;2022-09-17T06:05:12;13.00;99.90
13998;DHT22;7074;51.508;7.018;2022-09-17T06:07:39;13.10;99.90
13998;DHT22;7074;51.508;7.018;2022-09-17T06:10:06;13.10;99.90
13998;DHT22;7074;51.508;7.018;2022-09-17T06:12:34;13.10;99.90
13998;DHT22;7074;51.508;7.018;2022-09-17T06:15:03;13.10;99.90
13998;DHT22;7074;51.508;7.018;2022-09-17T06:17:32;13.10;99.90
13998;DHT22;7074;51.508;7.018;2022-09-17T06:20:00;13.10;99.90
13998;DHT22;7074;51.508;7.018;2022-09-17T06:22:27;13.00;99.90
13998;DHT22;7074;51.508;7.018;2022-09-17T06:24:54;13.00;99.90
13998;DHT22;7074;51.508;7.018;2022-09-17T06:27:21;13.00;99.90
13998;DHT22;7074;51.508;7.018;2022-09-17T06:29:49;13.00;99.90
13998;DHT22;7074;51.508;7.018;2022-09-17T06:32:17;13.00;99.90
13998;DHT22;7074;51.508;7.018;2022-09-17T06:34:44;13.00;99.90
13998;DHT22;7074;51.508;7.018;2022-09-17T06:37:11;13.10;99.90
13998;DHT22;7074;51.508;7.018;2022-09-17T06:39:38;13.10;99.90
13998;DHT22;7074;51.508;7.018;2022-09-17T06:42:06;13.00;99.90
13998;DHT22;7074;51.508;7.018;2022-09-17T06:44:33;13.00;99.90
13998;DHT22;7074;51.508;7.018;2022-09-17T06:47:00;13.00;99.90
13998;DHT22;7074;51.508;7.018;2022-09-17T06:49:29;12.90;99.90
13998;DHT22;7074;51.508;7.018;2022-09-17T06:51:56;12.90;99.90
13998;DHT22;7074;51.508;7.018;2022-09-17T06:54:23;12.90;99.90
13998;DHT22;7074;51.508;7.018;2022-09-17T06:56:50;13.00;99.90
13998;DHT22;7074;51.508;7.018;2022-09-17T06:59:17;13.00;99.90
13998;DHT22;7074;51.508;7.018;2022-09-17T07:01:45;13.00;99.90
13998;DHT22;7074;51.508;7.018;2022-09-17T07:04:13;13.00;99.90
13998;DHT22;7074;51.508;7.018;2022-09-17T07:06:44;13.10;99.90
13998;DHT22;7074;51.508;7.018;2022-09-17T07:09:11;13.20;99.90
13998;DHT22;7074;51.508;7.018;2022-09-17T07:11:38;13.30;99.90
13998;DHT22;7074;51.508;7.018;2022-09-17T07:14:05;13.40;99.90
13998;DHT22;7074;51.508;7.018;2022-09-17T07:16:33;13.50;99.90
13998;DHT22;7074;51.508;7.018;2022-09-17T07:19:01;13.50;99.90
13998;DHT22;7074;51.508;7.018;2022-09-17T07:21:28;13.70;99.90
13998;DHT22;7074;51.508;7.018;2022-09-17T07:23:57;13.70;99.90
13998;DHT22;7074;51.508;7.018;2022-09-17T07:26:25;13.80;99.90
13998;DHT22;7074;51.508;7.018;2022-09-17T07:28:52;13.80;99.90
13998;DHT22;7074;51.508;7.018;2022-09-17T07:31:19;13.90;99.90
13998;DHT22;7074;51.508;7.018;2022-09-17T07:33:46;14.00;99.90
13998;DHT22;7074;51.508;7.018;2022-09-17T07:36:15;14.00;99.90
13998;DHT22;7074;51.508;7.018;2022-09-17T07:38:43;14.00;99.90
13998;DHT22;7074;51.508;7.018;2022-09-17T07:41:13;13.90;99.90
13998;DHT22;7074;51.508;7.018;2022-09-17T07:43:41;13.90;99.90
13998;DHT22;7074;51.508;7.018;2022-09-17T07:46:12;14.00;99.90
13998;DHT22;7074;51.508;7.018;2022-09-17T07:48:40;14.10;99.90
13998;DHT22;7074;51.508;7.018;2022-09-17T07:51:13;14.20;99.90
13998;DHT22;7074;51.508;7.018;2022-09-17T07:53:40;14.10;99.90
13998;DHT22;7074;51.508;7.018;2022-09-17T07:56:08;14.10;99.90
13998;DHT22;7074;51.508;7.018;2022-09-17T07:58:36;14.30;99.90
13998;DHT22;7074;51.508;7.018;2022-09-17T08:01:05;14.30;99.90
13998;DHT22;7074;51.508;7.018;2022-09-17T08:03:33;14.50;99.90
13998;DHT22;7074;51.508;7.018;2022-09-17T08:06:02;14.50;99.90
13998;DHT22;7074;51.508;7.018;2022-09-17T08:08:30;14.60;99.90
13998;DHT22;7074;51.508;7.018;2022-09-17T08:11:02;14.60;99.90
13998;DHT22;7074;51.508;7.018;2022-09-17T08:13:29;14.70;99.90
13998;DHT22;7074;51.508;7.018;2022-09-17T08:15:59;14.80;99.90
13998;DHT22;7074;51.508;7.018;2022-09-17T08:18:26;14.80;99.90
13998;DHT22;7074;51.508;7.018;2022-09-17T08:20:58;14.90;99.90
13998;DHT22;7074;51.508;7.018;2022-09-17T08:23:26;15.00;99.90
13998;DHT22;7074;51.508;7.018;2022-09-17T08:25:53;15.10;99.90
13998;DHT22;7074;51.508;7.018;2022-09-17T08:28:21;15.20;99.90
13998;DHT22;7074;51.508;7.018;2022-09-17T08:30:50;15.30;99.90
13998;DHT22;7074;51.508;7.018;2022-09-17T08:33:19;15.20;99.90
13998;DHT22;7074;51.508;7.018;2022-09-17T08:35:50;15.30;99.90
13998;DHT22;7074;51.508;7.018;2022-09-17T08:38:19;15.30;99.90
13998;DHT22;7074;51.508;7.018;2022-09-17T08:40:57;15.30;99.90
13998;DHT22;7074;51.508;7.018;2022-09-17T08:43:27;15.10;99.90
13998;DHT22;7074;51.508;7.018;2022-09-17T08:45:57;15.30;99.90
13998;DHT22;7074;51.508;7.018;2022-09-17T08:48:33;15.40;99.90
13998;DHT22;7074;51.508;7.018;2022-09-17T08:51:05;15.40;99.90
13998;DHT22;7074;51.508;7.018;2022-09-17T08:53:47;15.60;99.90
13998;DHT22;7074;51.508;7.018;2022-09-17T08:56:18;15.70;99.90
13998;DHT22;7074;51.508;7.018;2022-09-17T08:59:02;15.80;99.90
13998;DHT22;7074;51.508;7.018;2022-09-17T09:01:34;15.90;99.90
13998;DHT22;7074;51.508;7.018;2022-09-17T09:04:35;15.70;99.90
13998;DHT22;7074;51.508;7.018;2022-09-17T09:07:10;16.00;99.90
13998;DHT22;7074;51.508;7.018;2022-09-17T09:09:42;15.70;99.90
13998;DHT22;7074;51.508;7.018;2022-09-17T09:12:17;15.90;99.90
13998;DHT22;7074;51.508;7.018;2022-09-17T09:14:50;16.00;99.90
13998;DHT22;7074;51.508;7.018;2022-09-17T09:17:22;16.00;99.90
13998;DHT22;7074;51.508;7.018;2022-09-17T09:19:53;16.10;99.90
13998;DHT22;7074;51.508;7.018;2022-09-17T09:22:38;16.30;99.90
13998;DHT22;7074;51.508;7.018;2022-09-17T09:25:17;16.50;99.90
13998;DHT22;7074;51.508;7.018;2022-09-17T09:28:01;16.40;99.90
13998;DHT22;7074;51.508;7.018;2022-09-17T09:30:40;16.30;99.90
13998;DHT22;7074;51.508;7.018;2022-09-17T09:33:12;16.40;99.90
13998;DHT22;7074;51.508;7.018;2022-09-17T09:35:42;16.50;99.90
13998;DHT22;7074;51.508;7.018;2022-09-17T09:38:16;16.70;99.90
13998;DHT22;7074;51.508;7.018;2022-09-17T09:40:50;16.60;99.90
13998;DHT22;7074;51.508;7.018;2022-09-17T09:43:21;16.60;99.90
13998;DHT22;7074;51.508;7.018;2022-09-17T09:46:17;16.80;99.90
13998;DHT22;7074;51.508;7.018;2022-09-17T09:48:57;16.90;99.90
13998;DHT22;7074;51.508;7.018;2022-09-17T09:51:38;17.00;99.90
13998;DHT22;7074;51.508;7.018;2022-09-17T09:54:27;16.80;99.90
13998;DHT22;7074;51.508;7.018;2022-09-17T09:56:57;16.90;99.90
13998;DHT22;7074;51.508;7.018;2022-09-17T09:59:28;17.00;99.90
13998;DHT22;7074;51.508;7.018;2022-09-17T10:01:55;16.80;99.90
13998;DHT22;7074;51.508;7.018;2022-09-17T10:04:24;16.60;99.90
13998;DHT22;7074;51.508;7.018;2022-09-17T10:06:58;16.80;99.90
13998;DHT22;7074;51.508;7.018;2022-09-17T10:09:29;16.70;99.90
13998;DHT22;7074;51.508;7.018;2022-09-17T10:12:03;17.00;99.90
13998;DHT22;7074;51.508;7.018;2022-09-17T10:14:32;17.20;99.90
13998;DHT22;7074;51.508;7.018;2022-09-17T10:17:13;16.80;99.90
13998;DHT22;7074;51.508;7.018;2022-09-17T10:19:42;16.90;99.90
13998;DHT22;7074;51.508;7.018;2022-09-17T10:22:25;17.10;99.90
13998;DHT22;7074;51.508;7.018;2022-09-17T10:24:55;17.20;99.90
13998;DHT22;7074;51.508;7.018;2022-09-17T10:27:23;17.00;99.90
13998;DHT22;7074;51.508;7.018;2022-09-17T10:29:57;16.90;99.90
13998;DHT22;7074;51.508;7.018;2022-09-17T10:32:27;17.00;99.90
13998;DHT22;7074;51.508;7.018;2022-09-17T10:35:04;17.10;99.90
13998;DHT22;7074;51.508;7.018;2022-09-17T10:37:40;17.10;99.90
13998;DHT22;7074;51.508;7.018;2022-09-17T10:40:26;16.80;99.90
13998;DHT22;7074;51.508;7.018;2022-09-17T10:43:16;16.50;99.90
13998;DHT22;7074;51.508;7.018;2022-09-17T10:45:54;16.30;99.90
13998;DHT22;7074;51.508;7.018;2022-09-17T10:48:23;15.90;99.90
13998;DHT22;7074;51.508;7.018;2022-09-17T10:50:53;15.40;99.90
13998;DHT22;7074;51.508;7.018;2022-09-17T10:53:24;15.20;99.90
13998;DHT22;7074;51.508;7.018;2022-09-17T10:55:57;15.10;99.90
13998;DHT22;7074;51.508;7.018;2022-09-17T10:58:37;14.90;99.90
13998;DHT22;7074;51.508;7.018;2022-09-17T11:01:13;15.00;99.90
13998;DHT22;7074;51.508;7.018;2022-09-17T11:03:57;15.00;99.90
13998;DHT22;7074;51.508;7.018;2022-09-17T11:09:28;14.80;99.90
13998;DHT22;7074;51.508;7.018;2022-09-17T11:12:12;14.60;99.90
13998;DHT22;7074;51.508;7.018;2022-09-17T11:14:49;14.00;99.90
13998;DHT22;7074;51.508;7.018;2022-09-17T11:17:30;14.00;99.90
13998;DHT22;7074;51.508;7.018;2022-09-17T11:20:03;13.90;99.90
13998;DHT22;7074;51.508;7.018;2022-09-17T11:22:41;14.00;99.90
13998;DHT22;7074;51.508;7.018;2022-09-17T11:25:32;13.80;99.90
13998;DHT22;7074;51.508;7.018;2022-09-17T11:28:08;14.00;99.90
13998;DHT22;7074;51.508;7.018;2022-09-17T11:30:47;14.30;99.90
13998;DHT22;7074;51.508;7.018;2022-09-17T11:33:33;14.40;99.90
13998;DHT22;7074;51.508;7.018;2022-09-17T11:36:10;14.30;99.90
13998;DHT22;7074;51.508;7.018;2022-09-17T11:38:40;14.40;99.90
13998;DHT22;7074;51.508;7.018;2022-09-17T11:41:14;14.40;99.90
13998;DHT22;7074;51.508;7.018;2022-09-17T11:43:45;14.30;99.90
13998;DHT22;7074;51.508;7.018;2022-09-17T11:46:16;14.30;99.90
13998;DHT22;7074;51.508;7.018;2022-09-17T11:48:50;14.10;99.90
13998;DHT22;7074;51.508;7.018;2022-09-17T11:51:23;14.10;99.90
13998;DHT22;7074;51.508;7.018;2022-09-17T11:53:55;14.20;99.90
13998;DHT22;7074;51.508;7.018;2022-09-17T11:56:30;14.50;99.90
13998;DHT22;7074;51.508;7.018;2022-09-17T11:59:03;14.80;99.90
13998;DHT22;7074;51.508;7.018;2022-09-17T12:01:35;14.90;99.90
13998;DHT22;7074;51.508;7.018;2022-09-17T12:04:15;15.20;99.90
13998;DHT22;7074;51.508;7.018;2022-09-17T12:06:53;15.30;99.90
13998;DHT22;7074;51.508;7.018;2022-09-17T12:09:25;15.40;99.90
13998;DHT22;7074;51.508;7.018;2022-09-17T12:12:00;15.70;99.90
13998;DHT22;7074;51.508;7.018;2022-09-17T12:14:38;15.80;99.90
13998;DHT22;7074;51.508;7.018;2022-09-17T12:17:13;15.80;99.90
13998;DHT22;7074;51.508;7.018;2022-09-17T12:19:45;15.70;99.90
13998;DHT22;7074;51.508;7.018;2022-09-17T12:22:17;15.50;99.90
13998;DHT22;7074;51.508;7.018;2022-09-17T12:24:49;15.60;99.90
13998;DHT22;7074;51.508;7.018;2022-09-17T12:27:26;15.70;99.90
13998;DHT22;7074;51.508;7.018;2022-09-17T12:30:07;15.60;99.90
13998;DHT22;7074;51.508;7.018;2022-09-17T12:33:06;15.60;99.90
13998;DHT22;7074;51.508;7.018;2022-09-17T12:36:02;15.50;99.90
13998;DHT22;7074;51.508;7.018;2022-09-17T12:39:13;15.40;99.90
13998;DHT22;7074;51.508;7.018;2022-09-17T12:41:53;15.40;99.90
13998;DHT22;7074;51.508;7.018;2022-09-17T12:44:55;15.40;99.90
13998;DHT22;7074;51.508;7.018;2022-09-17T12:50:36;15.80;99.90
13998;DHT22;7074;51.508;7.018;2022-09-17T12:53:14;16.00;99.90
13998;DHT22;7074;51.508;7.018;2022-09-17T12:55:58;16.20;99.90
13998;DHT22;7074;51.508;7.018;2022-09-17T12:58:59;16.30;99.90
13998;DHT22;7074;51.508;7.018;2022-09-17T13:01:37;16.30;99.90
13998;DHT22;7074;51.508;7.018;2022-09-17T13:04:16;16.50;99.90
13998;DHT22;7074;51.508;7.018;2022-09-17T13:07:13;16.70;99.90
13998;DHT22;7074;51.508;7.018;2022-09-17T13:10:12;16.70;99.90
13998;DHT22;7074;51.508;7.018;2022-09-17T13:12:45;16.90;99.90
13998;DHT22;7074;51.508;7.018;2022-09-17T13:15:37;17.10;99.90
13998;DHT22;7074;51.508;7.018;2022-09-17T13:18:14;17.20;99.90
13998;DHT22;7074;51.508;7.018;2022-09-17T13:21:00;17.10;99.90
13998;DHT22;7074;51.508;7.018;2022-09-17T13:23:38;16.90;99.90
13998;DHT22;7074;51.508;7.018;2022-09-17T13:27:34;17.20;99.90
13998;DHT22;7074;51.508;7.018;2022-09-17T13:30:14;17.40;99.90
13998;DHT22;7074;51.508;7.018;2022-09-17T13:42:18;16.50;99.90
13998;DHT22;7074;51.508;7.018;2022-09-17T13:44:50;16.30;99.90
13998;DHT22;7074;51.508;7.018;2022-09-17T13:47:28;15.50;99.90
13998;DHT22;7074;51.508;7.018;2022-09-17T13:50:08;15.30;99.90
13998;DHT22;7074;51.508;7.018;2022-09-17T13:55:59;15.10;99.90
13998;DHT22;7074;51.508;7.018;2022-09-17T13:58:45;15.10;99.90
13998;DHT22;7074;51.508;7.018;2022-09-17T14:08:23;15.50;99.90
13998;DHT22;7074;51.508;7.018;2022-09-17T14:11:47;15.60;99.90
13998;DHT22;7074;51.508;7.018;2022-09-17T14:14:53;15.60;99.90
13998;DHT22;7074;51.508;7.018;2022-09-17T14:17:50;15.60;99.90
13998;DHT22;7074;51.508;7.018;2022-09-17T14:20:41;15.70;99.90
13998;DHT22;7074;51.508;7.018;2022-09-17T14:23:13;15.50;99.90
13998;DHT22;7074;51.508;7.018;2022-09-17T14:25:46;15.60;99.90
13998;DHT22;7074;51.508;7.018;2022-09-17T14:29:00;15.50;99.90
13998;DHT22;7074;51.508;7.018;2022-09-17T14:31:36;15.60;99.90
13998;DHT22;7074;51.508;7.018;2022-09-17T14:34:24;15.60;99.90
13998;DHT22;7074;51.508;7.018;2022-09-17T14:37:51;15.50;99.90
13998;DHT22;7074;51.508;7.018;2022-09-17T14:40:24;15.60;99.90
13998;DHT22;7074;51.508;7.018;2022-09-17T14:44:11;15.60;99.90
13998;DHT22;7074;51.508;7.018;2022-09-17T14:53:43;15.70;99.90
13998;DHT22;7074;51.508;7.018;2022-09-17T14:56:19;15.70;99.90
13998;DHT22;7074;51.508;7.018;2022-09-17T14:59:32;15.80;99.90
13998;DHT22;7074;51.508;7.018;2022-09-17T15:02:22;15.80;99.90
13998;DHT22;7074;51.508;7.018;2022-09-17T15:04:56;15.90;99.90
13998;DHT22;7074;51.508;7.018;2022-09-17T15:11:19;15.80;99.90
13998;DHT22;7074;51.508;7.018;2022-09-17T15:13:52;15.80;99.90
13998;DHT22;7074;51.508;7.018;2022-09-17T15:16:24;15.80;99.90
13998;DHT22;7074;51.508;7.018;2022-09-17T15:18:54;15.80;99.90
13998;DHT22;7074;51.508;7.018;2022-09-17T15:21:32;15.70;99.90
13998;DHT22;7074;51.508;7.018;2022-09-17T15:24:18;15.80;99.90
13998;DHT22;7074;51.508;7.018;2022-09-17T15:26:52;15.70;99.90
13998;DHT22;7074;51.508;7.018;2022-09-17T15:29:24;15.70;99.90
13998;DHT22;7074;51.508;7.018;2022-09-17T15:31:56;15.60;99.90
13998;DHT22;7074;51.508;7.018;2022-09-17T15:34:31;15.40;99.90
13998;DHT22;7074;51.508;7.018;2022-09-17T15:37:03;15.40;99.90
13998;DHT22;7074;51.508;7.018;2022-09-17T15:39:38;15.30;99.90
13998;DHT22;7074;51.508;7.018;2022-09-17T15:42:22;15.10;99.90
13998;DHT22;7074;51.508;7.018;2022-09-17T15:45:07;15.00;99.90
13998;DHT22;7074;51.508;7.018;2022-09-17T15:47:51;14.80;99.90
13998;DHT22;7074;51.508;7.018;2022-09-17T15:50:20;14.90;99.90
13998;DHT22;7074;51.508;7.018;2022-09-17T15:52:48;14.70;99.90
13998;DHT22;7074;51.508;7.018;2022-09-17T15:55:34;14.60;99.90
13998;DHT22;7074;51.508;7.018;2022-09-17T15:58:04;14.60;99.90
13998;DHT22;7074;51.508;7.018;2022-09-17T16:00:44;14.60;99.90
13998;DHT22;7074;51.508;7.018;2022-09-17T16:06:36;14.40;99.90
13998;DHT22;7074;51.508;7.018;2022-09-17T16:09:38;14.40;99.90
13998;DHT22;7074;51.508;7.018;2022-09-17T16:12:58;14.20;99.90
13998;DHT22;7074;51.508;7.018;2022-09-17T16:22:41;14.10;99.90
13998;DHT22;7074;51.508;7.018;2022-09-17T16:28:37;14.10;99.90
13998;DHT22;7074;51.508;7.018;2022-09-17T16:32:00;14.10;99.90
13998;DHT22;7074;51.508;7.018;2022-09-17T16:34:48;14.20;99.90
13998;DHT22;7074;51.508;7.018;2022-09-17T16:43:55;14.30;99.90
13998;DHT22;7074;51.508;7.018;2022-09-17T17:00:18;14.40;99.90
13998;DHT22;7074;51.508;7.018;2022-09-17T17:02:51;14.40;99.90
13998;DHT22;7074;51.508;7.018;2022-09-17T17:05:22;14.50;99.90
13998;DHT22;7074;51.508;7.018;2022-09-17T17:07:51;14.50;99.90
13998;DHT22;7074;51.508;7.018;2022-09-17T17:10:19;14.50;99.90
13998;DHT22;7074;51.508;7.018;2022-09-17T17:12:47;14.40;99.90
13998;DHT22;7074;51.508;7.018;2022-09-17T17:15:14;14.40;99.90
13998;DHT22;7074;51.508;7.018;2022-09-17T17:17:44;14.40;99.90
13998;DHT22;7074;51.508;7.018;2022-09-17T17:20:14;14.40;99.90
13998;DHT22;7074;51.508;7.018;2022-09-17T17:22:42;14.30;99.90
13998;DHT22;7074;51.508;7.018;2022-09-17T17:25:11;14.40;99.90
13998;DHT22;7074;51.508;7.018;2022-09-17T17:27:39;14.30;99.90
13998;DHT22;7074;51.508;7.018;2022-09-17T17:30:08;14.30;99.90
13998;DHT22;7074;51.508;7.018;2022-09-17T17:32:43;14.30;99.90
13998;DHT22;7074;51.508;7.018;2022-09-17T17:35:11;14.20;99.90
13998;DHT22;7074;51.508;7.018;2022-09-17T17:37:38;14.20;99.90
13998;DHT22;7074;51.508;7.018;2022-09-17T17:40:06;14.20;99.90
13998;DHT22;7074;51.508;7.018;2022-09-17T17:42:35;14.20;99.90